createdAt,value
2023-05-10T00:00:05.820Z,7.78
2023-05-10T00:03:16.756Z,6.97
2023-05-10T00:06:20.304Z,8.82
2023-05-10T00:09:23.506Z,7.25
2023-05-10T00:12:26.762Z,7.07
2023-05-10T00:15:31.533Z,6.90
2023-05-10T00:18:34.796Z,7.68
2023-05-10T00:21:38.109Z,6.80
2023-05-10T00:24:41.435Z,7.25
2023-05-10T00:27:44.609Z,7.43
2023-05-10T00:30:48.071Z,7.65
2023-05-10T00:33:51.424Z,7.22
2023-05-10T00:36:55.034Z,7.40
2023-05-10T00:39:58.323Z,7.80
2023-05-10T00:43:02.478Z,8.07
2023-05-10T00:46:06.935Z,7.97
2023-05-10T00:49:10.258Z,8.50
2023-05-10T00:52:13.987Z,8.88
2023-05-10T00:55:18.793Z,7.53
2023-05-10T00:58:21.979Z,8.57
2023-05-10T01:01:25.784Z,8.95
2023-05-10T01:04:30.940Z,9.07
2023-05-10T01:07:34.132Z,8.68
2023-05-10T01:10:37.539Z,9.15
2023-05-10T01:13:44.310Z,8.43
2023-05-10T01:16:49.927Z,10.52
2023-05-10T01:19:53.701Z,8.50
2023-05-10T01:23:36.836Z,10.38
2023-05-10T01:27:00.908Z,9.98
2023-05-10T01:30:47.339Z,8.07
2023-05-10T01:33:57.778Z,8.85
2023-05-10T01:37:11.969Z,8.90
2023-05-10T01:40:23.587Z,9.05
2023-05-10T01:43:34.162Z,9.88
2023-05-10T01:46:39.550Z,9.70
2023-05-10T01:49:54.261Z,8.00
2023-05-10T01:53:01.280Z,7.80
2023-05-10T01:56:05.657Z,8.07
2023-05-10T01:59:17.879Z,9.57
2023-05-10T02:02:23.862Z,9.57
2023-05-10T02:05:30.182Z,9.48
2023-05-10T02:08:36.580Z,10.93
2023-05-10T02:11:42.615Z,9.10
2023-05-10T02:14:47.820Z,9.35
2023-05-10T02:17:54.005Z,10.20
2023-05-10T02:20:58.731Z,10.40
2023-05-10T02:24:04.216Z,10.18
2023-05-10T02:27:09.806Z,9.88
2023-05-10T02:30:14.106Z,11.90
2023-05-10T02:33:18.298Z,10.87
2023-05-10T02:36:23.893Z,10.95
2023-05-10T02:39:29.705Z,9.90
2023-05-10T02:42:38.078Z,12.00
2023-05-10T02:45:43.622Z,10.82
2023-05-10T02:48:47.142Z,11.67
2023-05-10T02:51:56.302Z,11.38
2023-05-10T02:55:04.437Z,11.32
2023-05-10T02:58:07.783Z,11.85
2023-05-10T03:01:11.205Z,10.52
2023-05-10T03:04:15.348Z,12.67
2023-05-10T03:07:20.455Z,11.68
2023-05-10T03:10:32.337Z,13.30
2023-05-10T03:13:47.826Z,12.10
2023-05-10T03:17:05.311Z,11.43
2023-05-10T03:20:20.242Z,12.97
2023-05-10T03:23:38.591Z,11.73
2023-05-10T03:26:44.536Z,10.80
2023-05-10T03:29:54.406Z,12.23
2023-05-10T03:32:58.100Z,11.15
2023-05-10T03:36:01.700Z,11.00
2023-05-10T03:39:05.134Z,10.95
2023-05-10T03:42:08.477Z,10.68
2023-05-10T03:45:11.924Z,11.52
2023-05-10T03:48:15.181Z,11.82
2023-05-10T03:51:19.419Z,11.50
2023-05-10T03:54:22.853Z,10.52
2023-05-10T03:57:26.156Z,11.05
2023-05-10T04:00:29.635Z,9.30
2023-05-10T04:03:33.388Z,8.80
2023-05-10T04:06:36.690Z,8.35
2023-05-10T04:09:42.319Z,10.65
2023-05-10T04:12:46.995Z,10.35
2023-05-10T04:15:50.320Z,10.52
2023-05-10T04:18:53.504Z,9.30
2023-05-10T04:21:56.764Z,9.55
2023-05-10T04:25:00.939Z,10.60
2023-05-10T04:28:04.664Z,9.57
2023-05-10T04:31:09.485Z,8.13
2023-05-10T04:34:12.735Z,7.90
2023-05-10T04:37:16.012Z,8.23
2023-05-10T04:40:19.507Z,8.70
2023-05-10T04:43:22.796Z,7.13
2023-05-10T04:46:26.180Z,7.70
2023-05-10T04:49:30.602Z,7.03
2023-05-10T04:52:34.188Z,8.70
2023-05-10T04:55:37.782Z,7.10
2023-05-10T04:58:40.980Z,6.55
2023-05-10T05:01:44.383Z,6.85
2023-05-10T05:04:47.761Z,7.53
2023-05-10T05:07:51.459Z,7.90
2023-05-10T05:10:55.506Z,6.18
2023-05-10T05:14:00.246Z,6.95
2023-05-10T05:17:04.967Z,9.02
2023-05-10T05:20:11.834Z,8.37
2023-05-10T05:23:15.130Z,6.80
2023-05-10T05:26:19.372Z,8.45
2023-05-10T05:29:22.749Z,6.65
2023-05-10T05:32:26.455Z,8.07
2023-05-10T05:35:29.818Z,5.27
2023-05-10T05:38:33.265Z,7.00
2023-05-10T05:41:42.015Z,5.40
2023-05-10T05:44:46.734Z,5.93
2023-05-10T05:47:50.162Z,8.20
2023-05-10T05:50:57.696Z,6.07
2023-05-10T05:54:01.677Z,7.53
2023-05-10T05:57:05.049Z,6.28
2023-05-10T06:00:08.988Z,5.65
2023-05-10T06:03:18.760Z,8.48
2023-05-10T06:06:22.290Z,6.70
2023-05-10T06:09:25.655Z,5.70
2023-05-10T06:12:29.161Z,8.13
2023-05-10T06:15:33.701Z,5.80
2023-05-10T06:18:37.245Z,6.50
2023-05-10T06:21:40.592Z,6.77
2023-05-10T06:24:44.681Z,6.63
2023-05-10T06:27:51.778Z,6.60
2023-05-10T06:30:59.841Z,6.55
2023-05-10T06:34:03.232Z,5.72
2023-05-10T06:37:06.544Z,6.33
2023-05-10T06:40:12.667Z,5.80
2023-05-10T06:43:16.806Z,6.43
2023-05-10T06:46:20.261Z,5.70
2023-05-10T06:49:23.963Z,6.72
2023-05-10T06:52:27.851Z,4.87
2023-05-10T06:55:51.350Z,7.43
2023-05-10T06:58:54.814Z,5.50
2023-05-10T07:01:58.335Z,5.88
2023-05-10T07:05:03.200Z,4.93
2023-05-10T07:08:19.216Z,6.67
2023-05-10T07:11:22.876Z,6.80
2023-05-10T07:14:26.198Z,11.05
2023-05-10T07:17:29.560Z,6.20
2023-05-10T07:20:34.766Z,5.90
2023-05-10T07:23:38.206Z,5.87
2023-05-10T07:26:41.528Z,4.97
2023-05-10T07:29:44.855Z,5.47
2023-05-10T07:32:48.180Z,6.22
2023-05-10T07:35:52.028Z,7.07
2023-05-10T07:38:55.662Z,5.83
2023-05-10T07:41:59.066Z,6.03
2023-05-10T07:45:02.331Z,9.25
2023-05-10T07:48:05.969Z,5.68
2023-05-10T07:51:10.582Z,6.25
2023-05-10T07:54:15.023Z,6.10
2023-05-10T07:57:18.948Z,5.70
2023-05-10T08:00:22.427Z,6.07
2023-05-10T08:03:25.756Z,5.57
2023-05-10T08:06:31.044Z,8.38
2023-05-10T08:09:34.894Z,6.80
2023-05-10T08:12:41.293Z,7.03
2023-05-10T08:15:44.796Z,6.45
2023-05-10T08:18:50.185Z,5.20
2023-05-10T08:21:56.511Z,6.93
2023-05-10T08:25:02.081Z,8.60
2023-05-10T08:28:05.703Z,5.03
2023-05-10T08:31:09.067Z,7.00
2023-05-10T08:34:12.588Z,7.60
2023-05-10T08:37:16.024Z,5.43
2023-05-10T08:40:23.851Z,5.77
2023-05-10T08:43:31.076Z,8.23
2023-05-10T08:46:39.831Z,7.10
2023-05-10T08:49:45.603Z,5.78
2023-05-10T08:52:51.758Z,5.72
2023-05-10T08:55:56.667Z,5.60
2023-05-10T08:59:00.784Z,5.70
2023-05-10T09:02:06.560Z,5.32
2023-05-10T09:05:11.687Z,5.53
2023-05-10T09:08:21.000Z,5.65
2023-05-10T09:11:25.285Z,6.67
2023-05-10T09:14:28.806Z,5.60
2023-05-10T09:17:32.426Z,4.20
2023-05-10T09:20:35.867Z,5.25
2023-05-10T09:23:39.044Z,6.15
2023-05-10T09:26:49.771Z,6.73
2023-05-10T09:29:55.458Z,5.40
2023-05-10T09:33:02.093Z,13.93
2023-05-10T09:36:09.635Z,6.50
2023-05-10T09:39:13.138Z,5.45
2023-05-10T09:42:20.236Z,6.37
2023-05-10T09:45:26.309Z,5.43
2023-05-10T09:48:29.691Z,4.75
2023-05-10T09:51:36.937Z,6.20
2023-05-10T09:54:53.401Z,6.25
2023-05-10T09:58:02.883Z,5.53
2023-05-10T10:01:11.716Z,5.07
2023-05-10T10:04:15.169Z,6.40
2023-05-10T10:07:25.912Z,5.30
2023-05-10T10:10:30.233Z,5.00
2023-05-10T10:13:33.530Z,6.17
2023-05-10T10:16:41.440Z,5.43
2023-05-10T10:19:50.644Z,5.80
2023-05-10T10:22:53.883Z,4.88
2023-05-10T10:25:57.667Z,4.55
2023-05-10T10:29:16.121Z,5.10
2023-05-10T10:32:36.951Z,5.40
2023-05-10T10:35:41.188Z,3.80
2023-05-10T10:38:50.286Z,5.03
2023-05-10T10:41:58.666Z,4.70
2023-05-10T10:45:14.607Z,4.37
2023-05-10T10:48:26.055Z,4.37
2023-05-10T10:51:32.277Z,8.85
2023-05-10T10:54:37.031Z,5.63
2023-05-10T10:57:48.849Z,5.55
2023-05-10T11:01:09.747Z,5.43
2023-05-10T11:04:12.973Z,6.07
2023-05-10T11:07:21.907Z,9.82
2023-05-10T11:10:26.890Z,4.43
2023-05-10T11:13:34.801Z,4.07
2023-05-10T11:16:45.125Z,5.70
2023-05-10T11:20:16.003Z,4.93
2023-05-10T11:23:20.860Z,4.80
2023-05-10T11:26:35.769Z,6.20
2023-05-10T11:29:39.807Z,4.60
2023-05-10T11:32:43.615Z,5.30
2023-05-10T11:35:47.092Z,4.83
2023-05-10T11:38:50.607Z,3.30
2023-05-10T11:41:54.068Z,3.20
2023-05-10T11:44:57.729Z,7.40
2023-05-10T11:48:02.042Z,8.23
2023-05-10T11:51:05.917Z,3.10
2023-05-10T11:54:10.981Z,3.53
2023-05-10T11:57:14.343Z,4.30
2023-05-10T12:00:18.260Z,4.15
2023-05-10T12:03:23.344Z,4.97
2023-05-10T12:06:30.741Z,3.77
2023-05-10T12:09:43.852Z,4.60
2023-05-10T12:12:55.026Z,6.25
2023-05-10T12:16:13.220Z,4.45
2023-05-10T12:19:21.719Z,3.80
2023-05-10T12:22:25.647Z,5.13
2023-05-10T12:25:33.751Z,4.70
2023-05-10T12:28:44.422Z,4.88
2023-05-10T12:31:57.749Z,4.07
2023-05-10T12:35:01.306Z,3.50
2023-05-10T12:38:33.334Z,4.23
2023-05-10T12:41:36.838Z,3.58
2023-05-10T12:44:41.011Z,5.82
2023-05-10T12:47:46.824Z,4.55
2023-05-10T12:50:50.303Z,4.43
2023-05-10T12:53:53.588Z,6.10
2023-05-10T12:56:56.854Z,4.10
2023-05-10T13:00:00.257Z,3.72
2023-05-10T13:03:04.006Z,6.13
2023-05-10T13:06:07.608Z,6.47
2023-05-10T13:09:11.135Z,6.37
2023-05-10T13:12:15.316Z,5.18
2023-05-10T13:15:18.833Z,4.97
2023-05-10T13:18:22.324Z,4.35
2023-05-10T13:21:26.205Z,3.77
2023-05-10T13:24:29.654Z,5.00
2023-05-10T13:27:33.560Z,4.75
2023-05-10T13:30:37.044Z,3.58
2023-05-10T13:33:41.584Z,5.70
2023-05-10T13:36:44.884Z,4.83
2023-05-10T13:39:48.453Z,5.13
2023-05-10T13:42:51.714Z,4.20
2023-05-10T13:45:55.032Z,7.97
2023-05-10T13:48:58.363Z,4.18
2023-05-10T13:52:07.733Z,4.93
2023-05-10T13:55:13.654Z,6.27
2023-05-10T13:58:16.988Z,3.67
2023-05-10T14:01:22.406Z,3.85
2023-05-10T14:04:25.936Z,4.28
2023-05-10T14:07:29.159Z,3.30
2023-05-10T14:10:32.555Z,6.57
2023-05-10T14:13:35.936Z,6.28
2023-05-10T14:16:46.053Z,3.47
2023-05-10T14:19:53.415Z,7.47
2023-05-10T14:22:56.656Z,3.40
2023-05-10T14:25:59.951Z,4.83
2023-05-10T14:29:03.412Z,4.30
2023-05-10T14:32:06.814Z,4.93
2023-05-10T14:35:13.073Z,4.05
2023-05-10T14:38:16.945Z,3.00
2023-05-10T14:41:20.366Z,6.40
2023-05-10T14:44:24.729Z,5.78
2023-05-10T14:47:28.329Z,5.00
2023-05-10T14:50:37.009Z,4.85
2023-05-10T14:53:40.700Z,5.80
2023-05-10T14:56:44.047Z,4.00
2023-05-10T14:59:47.347Z,3.83
2023-05-10T15:02:50.895Z,4.53
2023-05-10T15:05:54.790Z,3.97
2023-05-10T15:08:58.066Z,3.50
2023-05-10T15:12:01.684Z,5.53
2023-05-10T15:15:07.753Z,3.42
2023-05-10T15:18:11.391Z,5.13
2023-05-10T15:21:14.661Z,6.50
2023-05-10T15:24:18.002Z,4.17
2023-05-10T15:27:21.217Z,5.13
2023-05-10T15:30:24.468Z,4.45
2023-05-10T15:33:28.558Z,4.20
2023-05-10T15:36:33.622Z,4.88
2023-05-10T15:39:36.816Z,4.57
2023-05-10T15:42:40.113Z,4.80
2023-05-10T15:45:46.299Z,5.60
2023-05-10T15:48:50.208Z,5.70
2023-05-10T15:51:53.605Z,3.83
2023-05-10T15:54:57.189Z,2.80
2023-05-10T15:58:00.536Z,4.43
2023-05-10T16:01:05.929Z,4.13
2023-05-10T16:04:09.307Z,4.45
2023-05-10T16:07:12.590Z,3.80
2023-05-10T16:10:16.369Z,3.10
2023-05-10T16:13:22.748Z,4.20
2023-05-10T16:16:26.001Z,4.22
2023-05-10T16:19:31.728Z,4.63
2023-05-10T16:22:34.851Z,3.35
2023-05-10T16:25:38.186Z,5.20
2023-05-10T16:28:41.412Z,5.80
2023-05-10T16:31:44.714Z,6.22
2023-05-10T16:34:47.973Z,6.30
2023-05-10T16:37:51.561Z,5.75
2023-05-10T16:40:55.383Z,7.17
2023-05-10T16:43:58.660Z,4.10
2023-05-10T16:47:03.164Z,4.22
2023-05-10T16:50:08.003Z,7.15
2023-05-10T16:53:14.148Z,5.07
2023-05-10T16:56:22.367Z,6.63
2023-05-10T16:59:28.685Z,5.17
2023-05-10T17:02:31.917Z,5.10
2023-05-10T17:05:35.220Z,10.75
2023-05-10T17:08:38.560Z,4.75
2023-05-10T17:11:42.197Z,3.83
2023-05-10T17:14:45.672Z,7.10
2023-05-10T17:17:48.912Z,4.13
2023-05-10T17:20:55.058Z,4.35
2023-05-10T17:23:58.323Z,5.45
2023-05-10T17:27:03.543Z,5.07
2023-05-10T17:30:07.495Z,5.43
2023-05-10T17:33:10.904Z,6.70
2023-05-10T17:36:14.069Z,7.00
2023-05-10T17:39:17.271Z,4.47
2023-05-10T17:42:20.906Z,9.53
2023-05-10T17:45:24.216Z,4.93
2023-05-10T17:48:27.661Z,5.90
2023-05-10T17:51:30.943Z,7.70
2023-05-10T17:54:34.237Z,4.38
2023-05-10T17:57:38.863Z,7.43
2023-05-10T18:00:42.030Z,4.73
2023-05-10T18:03:46.386Z,6.22
2023-05-10T18:06:49.578Z,3.92
2023-05-10T18:09:52.790Z,3.78
2023-05-10T18:12:55.982Z,4.33
2023-05-10T18:15:59.404Z,5.17
2023-05-10T18:19:02.791Z,5.40
2023-05-10T18:22:08.133Z,6.38
2023-05-10T18:25:13.146Z,7.05
2023-05-10T18:28:16.827Z,5.17
2023-05-10T18:31:20.113Z,5.00
2023-05-10T18:34:23.576Z,4.18
2023-05-10T18:37:27.296Z,5.35
2023-05-10T18:40:30.564Z,4.95
2023-05-10T18:43:36.783Z,6.80
2023-05-10T18:46:40.317Z,6.37
2023-05-10T18:49:46.116Z,4.45
2023-05-10T18:52:50.604Z,5.75
2023-05-10T18:55:58.568Z,5.95
2023-05-10T18:59:01.902Z,6.67
2023-05-10T19:02:05.675Z,5.33
2023-05-10T19:05:09.826Z,7.93
2023-05-10T19:08:13.356Z,9.10
2023-05-10T19:11:16.834Z,4.43
2023-05-10T19:14:20.724Z,4.00
2023-05-10T19:17:25.310Z,10.23
2023-05-10T19:20:29.404Z,5.22
2023-05-10T19:23:34.421Z,8.55
2023-05-10T19:26:38.014Z,4.93
2023-05-10T19:29:41.725Z,6.97
2023-05-10T19:32:44.979Z,6.47
2023-05-10T19:35:52.121Z,5.70
2023-05-10T19:38:55.494Z,6.63
2023-05-10T19:41:59.728Z,6.60
2023-05-10T19:45:03.385Z,5.87
2023-05-10T19:48:06.997Z,6.47
2023-05-10T19:51:10.668Z,5.35
2023-05-10T19:54:14.214Z,6.70
2023-05-10T19:57:17.386Z,7.93
2023-05-10T20:00:20.768Z,5.43
2023-05-10T20:03:24.950Z,4.77
2023-05-10T20:06:28.973Z,6.03
2023-05-10T20:09:32.449Z,5.40
2023-05-10T20:12:35.687Z,5.07
2023-05-10T20:15:38.852Z,6.27
2023-05-10T20:18:42.112Z,5.37
2023-05-10T20:21:45.873Z,4.70
2023-05-10T20:24:49.199Z,5.20
2023-05-10T20:27:52.435Z,6.30
2023-05-10T20:30:56.423Z,5.60
2023-05-10T20:34:02.179Z,9.57
2023-05-10T20:37:06.948Z,4.65
2023-05-10T20:40:12.991Z,7.00
2023-05-10T20:43:16.221Z,5.20
2023-05-10T20:46:19.374Z,5.87
2023-05-10T20:49:22.585Z,6.47
2023-05-10T20:52:25.818Z,9.68
2023-05-10T20:55:29.177Z,5.25
2023-05-10T20:58:32.300Z,5.13
2023-05-10T21:01:35.465Z,4.93
2023-05-10T21:04:38.805Z,4.97
2023-05-10T21:07:42.069Z,5.57
2023-05-10T21:10:45.706Z,4.75
2023-05-10T21:13:48.921Z,5.68
2023-05-10T21:16:52.403Z,6.90
2023-05-10T21:19:55.880Z,5.00
2023-05-10T21:22:59.068Z,5.72
2023-05-10T21:26:04.213Z,4.93
2023-05-10T21:29:07.360Z,5.30
2023-05-10T21:32:10.692Z,5.80
2023-05-10T21:35:13.876Z,5.30
2023-05-10T21:38:17.123Z,5.45
2023-05-10T21:41:20.472Z,4.70
2023-05-10T21:44:23.709Z,6.65
2023-05-10T21:47:27.509Z,5.50
2023-05-10T21:50:30.831Z,4.37
2023-05-10T21:53:36.034Z,5.38
2023-05-10T21:56:39.376Z,7.93
2023-05-10T21:59:42.727Z,7.30
2023-05-10T22:02:46.848Z,4.83
2023-05-10T22:05:50.351Z,6.60
2023-05-10T22:08:53.483Z,6.32
2023-05-10T22:11:56.637Z,6.25
2023-05-10T22:18:10.185Z,6.17
2023-05-10T22:21:13.500Z,7.37
2023-05-10T22:24:16.999Z,6.10
2023-05-10T22:27:20.241Z,6.53
2023-05-10T22:30:23.627Z,6.90
2023-05-10T22:33:26.822Z,6.60
2023-05-10T22:36:31.658Z,6.45
2023-05-10T22:39:34.929Z,5.68
2023-05-10T22:42:38.411Z,9.00
2023-05-10T22:45:41.988Z,8.27
2023-05-10T22:48:45.158Z,7.17
2023-05-10T22:51:48.993Z,8.68
2023-05-10T22:54:54.687Z,9.10
2023-05-10T22:57:57.958Z,8.35
2023-05-10T23:01:01.308Z,10.13
2023-05-10T23:04:04.542Z,7.23
2023-05-10T23:07:07.818Z,8.32
2023-05-10T23:10:11.492Z,9.30
2023-05-10T23:13:14.758Z,8.63
2023-05-10T23:16:18.342Z,9.85
2023-05-10T23:19:21.617Z,6.60
2023-05-10T23:22:24.790Z,9.00
2023-05-10T23:25:28.134Z,7.78
2023-05-10T23:28:31.595Z,7.65
2023-05-10T23:31:34.796Z,7.68
2023-05-10T23:34:38.024Z,8.90
2023-05-10T23:37:42.330Z,6.73
2023-05-10T23:40:49.777Z,6.68
2023-05-10T23:43:52.947Z,8.77
2023-05-10T23:46:56.199Z,7.75
2023-05-10T23:49:59.525Z,6.57
2023-05-10T23:53:02.636Z,6.85
2023-05-10T23:56:10.133Z,7.28
2023-05-10T23:59:13.485Z,6.05
